sensor_id;sensor_type;location;lat;lon;timestamp;temperature;humidity
1415;DHT22;702;49.466;11.086;2023-10-09T00:03:57;12.60;99.90
1415;DHT22;702;49.466;11.086;2023-10-09T00:06:28;12.60;99.90
1415;DHT22;702;49.466;11.086;2023-10-09T00:09:18;12.60;99.90
1415;DHT22;702;49.466;11.086;2023-10-09T00:16:08;12.60;99.90
1415;DHT22;702;49.466;11.086;2023-10-09T00:22:34;12.60;99.90
1415;DHT22;702;49.466;11.086;2023-10-09T00:25:08;12.70;99.90
1415;DHT22;702;49.466;11.086;2023-10-09T00:28:05;12.70;99.90
1415;DHT22;702;49.466;11.086;2023-10-09T00:30:50;12.70;99.90
1415;DHT22;702;49.466;11.086;2023-10-09T00:34:06;12.70;99.90
1415;DHT22;702;49.466;11.086;2023-10-09T00:36:37;12.70;99.90
1415;DHT22;702;49.466;11.086;2023-10-09T00:39:49;12.80;99.90
1415;DHT22;702;49.466;11.086;2023-10-09T00:42:39;12.80;99.90
1415;DHT22;702;49.466;11.086;2023-10-09T00:45:12;12.90;99.90
1415;DHT22;702;49.466;11.086;2023-10-09T00:48:23;12.90;99.90
1415;DHT22;702;49.466;11.086;2023-10-09T00:54:51;13.00;99.90
1415;DHT22;702;49.466;11.086;2023-10-09T00:58:20;13.00;99.90
1415;DHT22;702;49.466;11.086;2023-10-09T01:00:57;13.00;99.90
1415;DHT22;702;49.466;11.086;2023-10-09T01:04:02;13.00;99.90
1415;DHT22;702;49.466;11.086;2023-10-09T01:06:56;13.00;99.90
1415;DHT22;702;49.466;11.086;2023-10-09T01:09:53;12.90;99.90
1415;DHT22;702;49.466;11.086;2023-10-09T01:13:06;12.90;99.90
1415;DHT22;702;49.466;11.086;2023-10-09T01:19:23;13.00;99.90
1415;DHT22;702;49.466;11.086;2023-10-09T01:28:06;13.00;99.90
1415;DHT22;702;49.466;11.086;2023-10-09T01:31:27;12.80;99.90
1415;DHT22;702;49.466;11.086;2023-10-09T01:34:04;12.80;99.90
1415;DHT22;702;49.466;11.086;2023-10-09T01:36:46;12.80;99.90
1415;DHT22;702;49.466;11.086;2023-10-09T01:39:54;12.90;99.90
1415;DHT22;702;49.466;11.086;2023-10-09T01:43:37;12.90;99.90
1415;DHT22;702;49.466;11.086;2023-10-09T01:46:25;12.90;99.90
1415;DHT22;702;49.466;11.086;2023-10-09T01:48:53;13.00;99.90
1415;DHT22;702;49.466;11.086;2023-10-09T01:51:35;13.00;99.90
1415;DHT22;702;49.466;11.086;2023-10-09T01:54:08;13.10;99.90
1415;DHT22;702;49.466;11.086;2023-10-09T01:56:47;13.10;99.90
1415;DHT22;702;49.466;11.086;2023-10-09T02:02:22;13.10;99.90
1415;DHT22;702;49.466;11.086;2023-10-09T02:05:10;13.20;99.90
1415;DHT22;702;49.466;11.086;2023-10-09T02:07:57;13.10;99.80
1415;DHT22;702;49.466;11.086;2023-10-09T02:10:24;13.20;99.90
1415;DHT22;702;49.466;11.086;2023-10-09T02:16:52;13.20;99.50
1415;DHT22;702;49.466;11.086;2023-10-09T02:19:46;13.10;99.70
1415;DHT22;702;49.466;11.086;2023-10-09T02:22:33;13.10;99.40
1415;DHT22;702;49.466;11.086;2023-10-09T02:25:07;13.10;99.70
1415;DHT22;702;49.466;11.086;2023-10-09T02:27:37;13.10;99.90
1415;DHT22;702;49.466;11.086;2023-10-09T02:30:25;13.20;99.60
1415;DHT22;702;49.466;11.086;2023-10-09T02:33:17;13.20;99.10
1415;DHT22;702;49.466;11.086;2023-10-09T02:35:56;13.20;99.50
1415;DHT22;702;49.466;11.086;2023-10-09T02:38:25;13.20;99.30
1415;DHT22;702;49.466;11.086;2023-10-09T02:40:53;13.20;99.00
1415;DHT22;702;49.466;11.086;2023-10-09T02:43:49;13.20;99.20
1415;DHT22;702;49.466;11.086;2023-10-09T02:46:36;13.10;99.20
1415;DHT22;702;49.466;11.086;2023-10-09T02:49:46;13.10;99.90
1415;DHT22;702;49.466;11.086;2023-10-09T02:52:53;13.20;99.40
1415;DHT22;702;49.466;11.086;2023-10-09T02:55:43;13.20;99.20
1415;DHT22;702;49.466;11.086;2023-10-09T02:58:46;13.20;99.60
1415;DHT22;702;49.466;11.086;2023-10-09T03:01:16;13.20;99.30
1415;DHT22;702;49.466;11.086;2023-10-09T03:03:57;13.20;99.30
1415;DHT22;702;49.466;11.086;2023-10-09T03:06:39;13.20;99.00
1415;DHT22;702;49.466;11.086;2023-10-09T03:09:46;13.20;99.40
1415;DHT22;702;49.466;11.086;2023-10-09T03:12:15;13.10;99.70
1415;DHT22;702;49.466;11.086;2023-10-09T03:14:56;13.10;99.20
1415;DHT22;702;49.466;11.086;2023-10-09T03:19:22;13.10;99.90
1415;DHT22;702;49.466;11.086;2023-10-09T03:20:40;13.10;99.70
1415;DHT22;702;49.466;11.086;2023-10-09T03:23:17;13.20;99.30
1415;DHT22;702;49.466;11.086;2023-10-09T03:25:53;13.20;98.80
1415;DHT22;702;49.466;11.086;2023-10-09T03:28:20;13.10;98.20
1415;DHT22;702;49.466;11.086;2023-10-09T03:34:30;13.00;99.90
1415;DHT22;702;49.466;11.086;2023-10-09T03:37:22;13.00;99.90
1415;DHT22;702;49.466;11.086;2023-10-09T03:40:20;13.00;99.90
1415;DHT22;702;49.466;11.086;2023-10-09T03:42:54;12.90;99.90
1415;DHT22;702;49.466;11.086;2023-10-09T03:45:49;12.90;99.90
1415;DHT22;702;49.466;11.086;2023-10-09T03:48:31;12.90;99.90
1415;DHT22;702;49.466;11.086;2023-10-09T03:51:02;12.80;99.90
1415;DHT22;702;49.466;11.086;2023-10-09T03:53:55;12.80;99.90
1415;DHT22;702;49.466;11.086;2023-10-09T03:56:30;12.70;99.90
1415;DHT22;702;49.466;11.086;2023-10-09T03:59:11;12.60;99.90
1415;DHT22;702;49.466;11.086;2023-10-09T04:01:53;12.60;99.90
1415;DHT22;702;49.466;11.086;2023-10-09T04:04:23;12.60;99.90
1415;DHT22;702;49.466;11.086;2023-10-09T04:07:13;12.40;99.90
1415;DHT22;702;49.466;11.086;2023-10-09T04:10:10;12.40;99.90
1415;DHT22;702;49.466;11.086;2023-10-09T04:13:32;12.40;99.90
1415;DHT22;702;49.466;11.086;2023-10-09T04:16:06;12.20;99.90
1415;DHT22;702;49.466;11.086;2023-10-09T04:19:54;12.10;99.90
1415;DHT22;702;49.466;11.086;2023-10-09T04:22:48;12.10;99.90
1415;DHT22;702;49.466;11.086;2023-10-09T04:25:33;12.10;99.90
1415;DHT22;702;49.466;11.086;2023-10-09T04:28:20;12.10;99.90
1415;DHT22;702;49.466;11.086;2023-10-09T04:31:10;12.00;99.90
1415;DHT22;702;49.466;11.086;2023-10-09T04:33:43;12.00;99.90
1415;DHT22;702;49.466;11.086;2023-10-09T04:36:19;12.00;99.90
1415;DHT22;702;49.466;11.086;2023-10-09T04:39:12;11.90;99.90
1415;DHT22;702;49.466;11.086;2023-10-09T04:45:15;11.80;99.90
1415;DHT22;702;49.466;11.086;2023-10-09T04:48:01;11.70;99.90
1415;DHT22;702;49.466;11.086;2023-10-09T04:51:05;11.80;99.90
1415;DHT22;702;49.466;11.086;2023-10-09T04:55:45;11.80;99.90
1415;DHT22;702;49.466;11.086;2023-10-09T04:57:16;11.70;99.90
1415;DHT22;702;49.466;11.086;2023-10-09T04:59:47;11.70;99.90
1415;DHT22;702;49.466;11.086;2023-10-09T05:06:24;11.70;99.90
1415;DHT22;702;49.466;11.086;2023-10-09T05:09:39;11.60;99.90
1415;DHT22;702;49.466;11.086;2023-10-09T05:12:30;11.60;99.90
1415;DHT22;702;49.466;11.086;2023-10-09T05:15:44;11.70;99.90
1415;DHT22;702;49.466;11.086;2023-10-09T05:18:15;11.70;99.90
1415;DHT22;702;49.466;11.086;2023-10-09T05:23:12;11.80;99.90
1415;DHT22;702;49.466;11.086;2023-10-09T05:25:51;11.70;99.90
1415;DHT22;702;49.466;11.086;2023-10-09T05:28:24;11.50;99.90
1415;DHT22;702;49.466;11.086;2023-10-09T05:31:28;11.50;99.90
1415;DHT22;702;49.466;11.086;2023-10-09T05:34:21;11.50;99.90
1415;DHT22;702;49.466;11.086;2023-10-09T05:36:48;11.50;99.90
1415;DHT22;702;49.466;11.086;2023-10-09T05:39:15;11.50;99.90
1415;DHT22;702;49.466;11.086;2023-10-09T05:41:48;11.50;99.90
1415;DHT22;702;49.466;11.086;2023-10-09T05:44:18;11.60;99.90
1415;DHT22;702;49.466;11.086;2023-10-09T05:47:05;11.70;99.90
1415;DHT22;702;49.466;11.086;2023-10-09T05:50:01;11.70;99.90
1415;DHT22;702;49.466;11.086;2023-10-09T05:52:42;11.60;99.90
1415;DHT22;702;49.466;11.086;2023-10-09T05:55:40;11.70;99.90
1415;DHT22;702;49.466;11.086;2023-10-09T05:58:25;11.90;99.90
1415;DHT22;702;49.466;11.086;2023-10-09T06:01:10;12.10;99.90
1415;DHT22;702;49.466;11.086;2023-10-09T06:03:54;12.20;99.90
1415;DHT22;702;49.466;11.086;2023-10-09T06:06:37;12.20;99.90
1415;DHT22;702;49.466;11.086;2023-10-09T06:09:11;12.30;99.90
1415;DHT22;702;49.466;11.086;2023-10-09T06:11:58;12.40;99.90
1415;DHT22;702;49.466;11.086;2023-10-09T06:14:42;12.40;99.90
1415;DHT22;702;49.466;11.086;2023-10-09T06:17:24;12.60;99.90
1415;DHT22;702;49.466;11.086;2023-10-09T06:19:53;12.70;99.90
1415;DHT22;702;49.466;11.086;2023-10-09T06:22:25;13.00;99.90
1415;DHT22;702;49.466;11.086;2023-10-09T06:25:10;13.00;98.20
1415;DHT22;702;49.466;11.086;2023-10-09T06:27:39;13.30;97.50
1415;DHT22;702;49.466;11.086;2023-10-09T06:30:25;13.50;94.90
1415;DHT22;702;49.466;11.086;2023-10-09T06:32:54;13.50;93.90
1415;DHT22;702;49.466;11.086;2023-10-09T06:35:47;13.60;94.10
1415;DHT22;702;49.466;11.086;2023-10-09T06:38:34;13.70;93.70
1415;DHT22;702;49.466;11.086;2023-10-09T06:41:17;13.70;93.20
1415;DHT22;702;49.466;11.086;2023-10-09T06:44:01;13.70;93.10
1415;DHT22;702;49.466;11.086;2023-10-09T06:46:31;13.90;92.60
1415;DHT22;702;49.466;11.086;2023-10-09T06:49:10;14.00;92.60
1415;DHT22;702;49.466;11.086;2023-10-09T06:51:58;14.20;91.70
1415;DHT22;702;49.466;11.086;2023-10-09T06:54:41;14.30;91.60
1415;DHT22;702;49.466;11.086;2023-10-09T06:57:17;14.40;91.40
1415;DHT22;702;49.466;11.086;2023-10-09T07:00:11;14.50;90.80
1415;DHT22;702;49.466;11.086;2023-10-09T07:02:57;14.60;90.70
1415;DHT22;702;49.466;11.086;2023-10-09T07:05:30;14.80;90.60
1415;DHT22;702;49.466;11.086;2023-10-09T07:08:14;14.90;90.50
1415;DHT22;702;49.466;11.086;2023-10-09T07:10:58;15.00;90.40
1415;DHT22;702;49.466;11.086;2023-10-09T07:13:46;15.10;90.40
1415;DHT22;702;49.466;11.086;2023-10-09T07:16:24;15.20;90.30
1415;DHT22;702;49.466;11.086;2023-10-09T07:18:55;15.20;90.10
1415;DHT22;702;49.466;11.086;2023-10-09T07:21:35;15.30;89.90
1415;DHT22;702;49.466;11.086;2023-10-09T07:24:05;15.40;89.20
1415;DHT22;702;49.466;11.086;2023-10-09T07:26:42;15.50;88.80
1415;DHT22;702;49.466;11.086;2023-10-09T07:29:19;15.60;89.00
1415;DHT22;702;49.466;11.086;2023-10-09T07:31:52;15.80;88.80
1415;DHT22;702;49.466;11.086;2023-10-09T07:34:24;15.70;88.20
1415;DHT22;702;49.466;11.086;2023-10-09T07:36:57;15.60;88.00
1415;DHT22;702;49.466;11.086;2023-10-09T07:39:31;15.70;88.20
1415;DHT22;702;49.466;11.086;2023-10-09T07:42:04;15.80;88.10
1415;DHT22;702;49.466;11.086;2023-10-09T07:44:45;16.00;87.90
1415;DHT22;702;49.466;11.086;2023-10-09T07:47:19;16.40;87.00
1415;DHT22;702;49.466;11.086;2023-10-09T07:49:58;16.70;86.50
1415;DHT22;702;49.466;11.086;2023-10-09T07:52:27;16.90;85.60
1415;DHT22;702;49.466;11.086;2023-10-09T07:54:55;17.30;83.30
1415;DHT22;702;49.466;11.086;2023-10-09T07:57:29;17.60;82.00
1415;DHT22;702;49.466;11.086;2023-10-09T08:00:06;17.80;80.70
1415;DHT22;702;49.466;11.086;2023-10-09T08:03:02;18.00;80.60
1415;DHT22;702;49.466;11.086;2023-10-09T08:05:49;18.30;79.90
1415;DHT22;702;49.466;11.086;2023-10-09T08:08:19;18.60;79.40
1415;DHT22;702;49.466;11.086;2023-10-09T08:11:00;18.80;78.50
1415;DHT22;702;49.466;11.086;2023-10-09T08:13:45;18.80;77.90
1415;DHT22;702;49.466;11.086;2023-10-09T08:16:22;18.70;77.40
1415;DHT22;702;49.466;11.086;2023-10-09T08:18:51;18.50;77.50
1415;DHT22;702;49.466;11.086;2023-10-09T08:21:18;18.60;77.30
1415;DHT22;702;49.466;11.086;2023-10-09T08:24:07;18.80;77.30
1415;DHT22;702;49.466;11.086;2023-10-09T08:26:54;19.00;77.00
1415;DHT22;702;49.466;11.086;2023-10-09T08:29:43;19.40;75.60
1415;DHT22;702;49.466;11.086;2023-10-09T08:32:13;19.60;75.50
1415;DHT22;702;49.466;11.086;2023-10-09T08:35:06;19.80;74.50
1415;DHT22;702;49.466;11.086;2023-10-09T08:37:53;20.20;74.00
1415;DHT22;702;49.466;11.086;2023-10-09T08:40:29;20.30;72.70
1415;DHT22;702;49.466;11.086;2023-10-09T08:43:06;20.50;73.00
1415;DHT22;702;49.466;11.086;2023-10-09T08:45:37;20.30;71.80
1415;DHT22;702;49.466;11.086;2023-10-09T08:48:07;20.10;72.20
1415;DHT22;702;49.466;11.086;2023-10-09T08:50:43;20.10;72.80
1415;DHT22;702;49.466;11.086;2023-10-09T08:53:11;20.20;72.00
1415;DHT22;702;49.466;11.086;2023-10-09T08:55:40;20.20;72.20
1415;DHT22;702;49.466;11.086;2023-10-09T08:58:08;20.10;71.90
1415;DHT22;702;49.466;11.086;2023-10-09T09:00:44;20.10;72.20
1415;DHT22;702;49.466;11.086;2023-10-09T09:03:12;20.20;72.50
1415;DHT22;702;49.466;11.086;2023-10-09T09:05:45;20.40;72.10
1415;DHT22;702;49.466;11.086;2023-10-09T09:08:22;20.50;71.80
1415;DHT22;702;49.466;11.086;2023-10-09T09:10:58;20.90;71.50
1415;DHT22;702;49.466;11.086;2023-10-09T09:13:38;21.40;70.90
1415;DHT22;702;49.466;11.086;2023-10-09T09:16:13;21.60;70.60
1415;DHT22;702;49.466;11.086;2023-10-09T09:18:56;21.90;69.30
1415;DHT22;702;49.466;11.086;2023-10-09T09:21:31;21.80;68.50
1415;DHT22;702;49.466;11.086;2023-10-09T09:24:05;21.30;69.50
1415;DHT22;702;49.466;11.086;2023-10-09T09:26:42;21.00;69.20
1415;DHT22;702;49.466;11.086;2023-10-09T09:29:14;21.10;69.20
1415;DHT22;702;49.466;11.086;2023-10-09T09:31:52;21.10;69.20
1415;DHT22;702;49.466;11.086;2023-10-09T09:34:20;20.90;69.90
1415;DHT22;702;49.466;11.086;2023-10-09T09:36:54;20.70;70.50
1415;DHT22;702;49.466;11.086;2023-10-09T09:39:23;20.50;71.20
1415;DHT22;702;49.466;11.086;2023-10-09T09:41:56;20.30;73.00
1415;DHT22;702;49.466;11.086;2023-10-09T09:44:31;20.20;75.80
1415;DHT22;702;49.466;11.086;2023-10-09T09:46:59;20.20;75.10
1415;DHT22;702;49.466;11.086;2023-10-09T09:49:29;20.10;75.50
1415;DHT22;702;49.466;11.086;2023-10-09T09:52:03;20.00;75.70
1415;DHT22;702;49.466;11.086;2023-10-09T09:54:36;20.00;75.70
1415;DHT22;702;49.466;11.086;2023-10-09T09:57:06;20.10;76.20
1415;DHT22;702;49.466;11.086;2023-10-09T09:59:40;20.10;77.80
1415;DHT22;702;49.466;11.086;2023-10-09T10:02:20;20.10;78.50
1415;DHT22;702;49.466;11.086;2023-10-09T10:04:54;20.10;79.10
1415;DHT22;702;49.466;11.086;2023-10-09T10:07:27;20.20;79.40
1415;DHT22;702;49.466;11.086;2023-10-09T10:09:56;20.40;78.30
1415;DHT22;702;49.466;11.086;2023-10-09T10:12:49;20.30;77.70
1415;DHT22;702;49.466;11.086;2023-10-09T10:18:53;20.40;80.50
1415;DHT22;702;49.466;11.086;2023-10-09T10:21:26;20.50;81.60
1415;DHT22;702;49.466;11.086;2023-10-09T10:24:42;20.70;79.80
1415;DHT22;702;49.466;11.086;2023-10-09T10:27:20;20.80;79.30
1415;DHT22;702;49.466;11.086;2023-10-09T10:30:29;20.90;80.30
1415;DHT22;702;49.466;11.086;2023-10-09T10:33:03;20.70;82.00
1415;DHT22;702;49.466;11.086;2023-10-09T10:35:41;20.80;81.40
1415;DHT22;702;49.466;11.086;2023-10-09T10:38:29;20.80;80.90
1415;DHT22;702;49.466;11.086;2023-10-09T10:41:15;20.50;79.30
1415;DHT22;702;49.466;11.086;2023-10-09T10:43:48;20.70;79.60
1415;DHT22;702;49.466;11.086;2023-10-09T10:46:25;21.00;79.90
1415;DHT22;702;49.466;11.086;2023-10-09T10:49:05;21.30;79.10
1415;DHT22;702;49.466;11.086;2023-10-09T10:51:47;21.40;77.80
1415;DHT22;702;49.466;11.086;2023-10-09T10:54:22;21.40;77.90
1415;DHT22;702;49.466;11.086;2023-10-09T10:57:19;21.50;78.00
1415;DHT22;702;49.466;11.086;2023-10-09T10:59:56;21.40;76.90
1415;DHT22;702;49.466;11.086;2023-10-09T11:02:42;21.00;76.60
1415;DHT22;702;49.466;11.086;2023-10-09T11:05:09;20.90;76.70
1415;DHT22;702;49.466;11.086;2023-10-09T11:07:50;20.50;76.70
1415;DHT22;702;49.466;11.086;2023-10-09T11:10:22;20.20;77.50
1415;DHT22;702;49.466;11.086;2023-10-09T11:12:56;20.20;77.40
1415;DHT22;702;49.466;11.086;2023-10-09T11:15:38;20.60;76.20
1415;DHT22;702;49.466;11.086;2023-10-09T11:18:12;20.80;76.20
1415;DHT22;702;49.466;11.086;2023-10-09T11:20:48;20.80;75.60
1415;DHT22;702;49.466;11.086;2023-10-09T11:23:46;21.00;75.10
1415;DHT22;702;49.466;11.086;2023-10-09T11:26:47;21.10;74.50
1415;DHT22;702;49.466;11.086;2023-10-09T11:29:23;21.20;73.80
1415;DHT22;702;49.466;11.086;2023-10-09T11:32:02;21.10;73.80
1415;DHT22;702;49.466;11.086;2023-10-09T11:34:31;21.20;73.70
1415;DHT22;702;49.466;11.086;2023-10-09T11:37:02;21.10;73.20
1415;DHT22;702;49.466;11.086;2023-10-09T11:39:31;20.90;73.50
1415;DHT22;702;49.466;11.086;2023-10-09T11:42:04;20.80;73.30
1415;DHT22;702;49.466;11.086;2023-10-09T11:44:37;20.70;73.10
1415;DHT22;702;49.466;11.086;2023-10-09T11:47:06;20.70;73.10
1415;DHT22;702;49.466;11.086;2023-10-09T11:49:59;20.80;73.60
1415;DHT22;702;49.466;11.086;2023-10-09T11:52:56;20.90;73.00
1415;DHT22;702;49.466;11.086;2023-10-09T11:55:36;21.20;73.00
1415;DHT22;702;49.466;11.086;2023-10-09T11:58:03;21.30;72.10
1415;DHT22;702;49.466;11.086;2023-10-09T12:00:33;21.40;72.40
1415;DHT22;702;49.466;11.086;2023-10-09T12:03:12;21.10;72.30
1415;DHT22;702;49.466;11.086;2023-10-09T12:05:40;20.70;72.60
1415;DHT22;702;49.466;11.086;2023-10-09T12:08:11;20.30;72.90
1415;DHT22;702;49.466;11.086;2023-10-09T12:10:41;20.00;73.80
1415;DHT22;702;49.466;11.086;2023-10-09T12:13:09;19.90;74.10
1415;DHT22;702;49.466;11.086;2023-10-09T12:15:38;19.70;74.70
1415;DHT22;702;49.466;11.086;2023-10-09T12:18:07;19.60;74.60
1415;DHT22;702;49.466;11.086;2023-10-09T12:20:41;19.60;74.60
1415;DHT22;702;49.466;11.086;2023-10-09T12:23:15;19.60;75.20
1415;DHT22;702;49.466;11.086;2023-10-09T12:25:43;19.80;75.30
1415;DHT22;702;49.466;11.086;2023-10-09T12:28:11;20.00;76.80
1415;DHT22;702;49.466;11.086;2023-10-09T12:30:41;20.00;76.90
1415;DHT22;702;49.466;11.086;2023-10-09T12:33:08;20.10;77.20
1415;DHT22;702;49.466;11.086;2023-10-09T12:35:38;20.30;76.40
1415;DHT22;702;49.466;11.086;2023-10-09T12:38:06;20.40;76.90
1415;DHT22;702;49.466;11.086;2023-10-09T12:40:36;20.50;77.10
1415;DHT22;702;49.466;11.086;2023-10-09T12:43:05;20.60;76.50
1415;DHT22;702;49.466;11.086;2023-10-09T12:45:42;20.80;76.20
1415;DHT22;702;49.466;11.086;2023-10-09T12:48:11;20.90;75.60
1415;DHT22;702;49.466;11.086;2023-10-09T12:50:40;21.20;75.10
1415;DHT22;702;49.466;11.086;2023-10-09T12:53:10;21.30;73.70
1415;DHT22;702;49.466;11.086;2023-10-09T12:55:43;21.30;73.10
1415;DHT22;702;49.466;11.086;2023-10-09T12:58:11;21.30;73.30
1415;DHT22;702;49.466;11.086;2023-10-09T13:00:43;21.20;71.80
1415;DHT22;702;49.466;11.086;2023-10-09T13:03:15;21.00;72.70
1415;DHT22;702;49.466;11.086;2023-10-09T13:05:48;20.90;72.80
1415;DHT22;702;49.466;11.086;2023-10-09T13:08:21;20.80;71.80
1415;DHT22;702;49.466;11.086;2023-10-09T13:10:51;20.90;72.00
1415;DHT22;702;49.466;11.086;2023-10-09T13:13:26;20.60;71.20
1415;DHT22;702;49.466;11.086;2023-10-09T13:16:07;20.50;72.50
1415;DHT22;702;49.466;11.086;2023-10-09T13:18:39;20.40;72.10
1415;DHT22;702;49.466;11.086;2023-10-09T13:21:07;20.50;72.40
1415;DHT22;702;49.466;11.086;2023-10-09T13:23:34;20.60;72.40
1415;DHT22;702;49.466;11.086;2023-10-09T13:26:12;20.90;71.40
1415;DHT22;702;49.466;11.086;2023-10-09T13:28:51;20.70;70.40
1415;DHT22;702;49.466;11.086;2023-10-09T13:31:21;20.60;69.90
1415;DHT22;702;49.466;11.086;2023-10-09T13:33:52;20.70;69.60
1415;DHT22;702;49.466;11.086;2023-10-09T13:36:21;20.90;68.50
1415;DHT22;702;49.466;11.086;2023-10-09T13:38:57;21.00;68.00
1415;DHT22;702;49.466;11.086;2023-10-09T13:41:27;21.10;67.50
1415;DHT22;702;49.466;11.086;2023-10-09T13:43:55;21.20;67.20
1415;DHT22;702;49.466;11.086;2023-10-09T13:46:24;21.30;66.70
1415;DHT22;702;49.466;11.086;2023-10-09T13:48:52;21.40;66.30
1415;DHT22;702;49.466;11.086;2023-10-09T13:51:19;21.20;65.70
1415;DHT22;702;49.466;11.086;2023-10-09T13:53:49;21.20;65.80
1415;DHT22;702;49.466;11.086;2023-10-09T13:56:18;21.20;65.10
1415;DHT22;702;49.466;11.086;2023-10-09T13:58:47;21.10;64.80
1415;DHT22;702;49.466;11.086;2023-10-09T14:01:15;21.20;64.80
1415;DHT22;702;49.466;11.086;2023-10-09T14:03:56;21.10;64.40
1415;DHT22;702;49.466;11.086;2023-10-09T14:06:24;20.90;64.50
1415;DHT22;702;49.466;11.086;2023-10-09T14:09:01;20.90;63.80
1415;DHT22;702;49.466;11.086;2023-10-09T14:11:30;20.90;63.10
1415;DHT22;702;49.466;11.086;2023-10-09T14:13:58;20.80;63.10
1415;DHT22;702;49.466;11.086;2023-10-09T14:16:27;20.90;62.90
1415;DHT22;702;49.466;11.086;2023-10-09T14:18:56;21.00;62.60
1415;DHT22;702;49.466;11.086;2023-10-09T14:21:26;21.10;62.50
1415;DHT22;702;49.466;11.086;2023-10-09T14:23:56;21.10;62.50
1415;DHT22;702;49.466;11.086;2023-10-09T14:26:27;21.30;62.40
1415;DHT22;702;49.466;11.086;2023-10-09T14:28:56;21.40;62.00
1415;DHT22;702;49.466;11.086;2023-10-09T14:31:26;21.40;62.00
1415;DHT22;702;49.466;11.086;2023-10-09T14:33:56;21.40;62.00
1415;DHT22;702;49.466;11.086;2023-10-09T14:36:24;21.40;60.70
1415;DHT22;702;49.466;11.086;2023-10-09T14:38:59;21.30;58.70
1415;DHT22;702;49.466;11.086;2023-10-09T14:41:27;21.20;57.60
1415;DHT22;702;49.466;11.086;2023-10-09T14:43:59;21.10;57.60
1415;DHT22;702;49.466;11.086;2023-10-09T14:46:26;21.10;57.30
1415;DHT22;702;49.466;11.086;2023-10-09T14:48:56;21.00;57.30
1415;DHT22;702;49.466;11.086;2023-10-09T14:51:24;21.00;57.00
1415;DHT22;702;49.466;11.086;2023-10-09T14:53:55;21.00;57.00
1415;DHT22;702;49.466;11.086;2023-10-09T14:56:27;21.00;57.50
1415;DHT22;702;49.466;11.086;2023-10-09T14:59:03;21.00;57.00
1415;DHT22;702;49.466;11.086;2023-10-09T15:01:32;20.90;57.10
1415;DHT22;702;49.466;11.086;2023-10-09T15:04:01;21.00;57.20
1415;DHT22;702;49.466;11.086;2023-10-09T15:06:29;21.00;57.10
1415;DHT22;702;49.466;11.086;2023-10-09T15:08:57;21.00;57.70
1415;DHT22;702;49.466;11.086;2023-10-09T15:11:26;21.00;57.20
1415;DHT22;702;49.466;11.086;2023-10-09T15:13:55;20.90;57.90
1415;DHT22;702;49.466;11.086;2023-10-09T15:16:24;20.80;58.90
1415;DHT22;702;49.466;11.086;2023-10-09T15:18:54;20.70;58.40
1415;DHT22;702;49.466;11.086;2023-10-09T15:21:24;20.60;58.70
1415;DHT22;702;49.466;11.086;2023-10-09T15:23:53;20.50;59.40
1415;DHT22;702;49.466;11.086;2023-10-09T15:26:22;20.50;59.90
1415;DHT22;702;49.466;11.086;2023-10-09T15:28:50;20.40;60.80
1415;DHT22;702;49.466;11.086;2023-10-09T15:31:18;20.30;60.60
1415;DHT22;702;49.466;11.086;2023-10-09T15:33:47;20.20;61.30
1415;DHT22;702;49.466;11.086;2023-10-09T15:36:18;20.20;61.90
1415;DHT22;702;49.466;11.086;2023-10-09T15:38:48;20.10;62.40
1415;DHT22;702;49.466;11.086;2023-10-09T15:41:16;20.10;62.30
1415;DHT22;702;49.466;11.086;2023-10-09T15:43:46;20.00;62.80
1415;DHT22;702;49.466;11.086;2023-10-09T15:46:14;19.80;63.00
1415;DHT22;702;49.466;11.086;2023-10-09T15:48:43;19.70;63.40
1415;DHT22;702;49.466;11.086;2023-10-09T15:51:12;19.70;64.50
1415;DHT22;702;49.466;11.086;2023-10-09T15:53:41;19.60;64.90
1415;DHT22;702;49.466;11.086;2023-10-09T15:56:11;19.50;65.10
1415;DHT22;702;49.466;11.086;2023-10-09T15:58:40;19.50;65.90
1415;DHT22;702;49.466;11.086;2023-10-09T16:01:10;19.70;67.00
1415;DHT22;702;49.466;11.086;2023-10-09T16:03:40;19.70;67.90
1415;DHT22;702;49.466;11.086;2023-10-09T16:06:08;19.50;68.40
1415;DHT22;702;49.466;11.086;2023-10-09T16:08:38;19.40;70.10
1415;DHT22;702;49.466;11.086;2023-10-09T16:11:08;19.20;70.80
1415;DHT22;702;49.466;11.086;2023-10-09T16:13:36;19.00;70.10
1415;DHT22;702;49.466;11.086;2023-10-09T16:16:04;18.90;69.40
1415;DHT22;702;49.466;11.086;2023-10-09T16:18:34;18.90;69.10
1415;DHT22;702;49.466;11.086;2023-10-09T16:21:03;18.80;69.30
1415;DHT22;702;49.466;11.086;2023-10-09T16:23:33;18.70;71.70
1415;DHT22;702;49.466;11.086;2023-10-09T16:26:02;18.70;73.20
1415;DHT22;702;49.466;11.086;2023-10-09T16:28:32;18.60;73.60
1415;DHT22;702;49.466;11.086;2023-10-09T16:31:01;18.50;74.10
1415;DHT22;702;49.466;11.086;2023-10-09T16:33:31;18.50;74.90
1415;DHT22;702;49.466;11.086;2023-10-09T16:35:59;18.40;75.90
1415;DHT22;702;49.466;11.086;2023-10-09T16:38:26;18.40;77.00
1415;DHT22;702;49.466;11.086;2023-10-09T16:40:55;18.30;78.00
1415;DHT22;702;49.466;11.086;2023-10-09T16:43:25;18.20;77.40
1415;DHT22;702;49.466;11.086;2023-10-09T16:45:53;18.10;77.80
1415;DHT22;702;49.466;11.086;2023-10-09T16:48:26;18.10;78.20
1415;DHT22;702;49.466;11.086;2023-10-09T16:50:56;18.00;78.70
1415;DHT22;702;49.466;11.086;2023-10-09T16:53:25;18.00;79.30
1415;DHT22;702;49.466;11.086;2023-10-09T16:55:53;18.00;78.00
1415;DHT22;702;49.466;11.086;2023-10-09T16:58:26;18.00;79.10
1415;DHT22;702;49.466;11.086;2023-10-09T17:00:53;17.90;79.40
1415;DHT22;702;49.466;11.086;2023-10-09T17:03:23;17.90;79.50
1415;DHT22;702;49.466;11.086;2023-10-09T17:05:55;17.80;80.50
1415;DHT22;702;49.466;11.086;2023-10-09T17:08:24;17.90;81.80
1415;DHT22;702;49.466;11.086;2023-10-09T17:10:56;17.80;81.50
1415;DHT22;702;49.466;11.086;2023-10-09T17:13:28;17.80;79.20
1415;DHT22;702;49.466;11.086;2023-10-09T17:15:57;17.70;77.80
1415;DHT22;702;49.466;11.086;2023-10-09T17:18:24;17.70;77.20
1415;DHT22;702;49.466;11.086;2023-10-09T17:20:54;17.70;78.70
1415;DHT22;702;49.466;11.086;2023-10-09T17:23:21;17.70;77.90
1415;DHT22;702;49.466;11.086;2023-10-09T17:25:48;17.70;75.20
1415;DHT22;702;49.466;11.086;2023-10-09T17:28:24;17.70;75.30
1415;DHT22;702;49.466;11.086;2023-10-09T17:30:59;17.60;75.70
1415;DHT22;702;49.466;11.086;2023-10-09T17:33:28;17.60;75.80
1415;DHT22;702;49.466;11.086;2023-10-09T17:35:59;17.60;75.70
1415;DHT22;702;49.466;11.086;2023-10-09T17:38:26;17.60;76.10
1415;DHT22;702;49.466;11.086;2023-10-09T17:40:56;17.60;78.00
1415;DHT22;702;49.466;11.086;2023-10-09T17:43:24;17.60;78.50
1415;DHT22;702;49.466;11.086;2023-10-09T17:45:52;17.50;78.60
1415;DHT22;702;49.466;11.086;2023-10-09T17:48:20;17.50;78.10
1415;DHT22;702;49.466;11.086;2023-10-09T17:50:48;17.50;76.80
1415;DHT22;702;49.466;11.086;2023-10-09T17:53:17;17.50;75.70
1415;DHT22;702;49.466;11.086;2023-10-09T17:55:45;17.60;76.40
1415;DHT22;702;49.466;11.086;2023-10-09T17:58:13;17.60;75.80